Time;durP1;ratioP1;P1;durP2;ratioP2;P2;SDS_P1;SDS_P2;PMS_P1;PMS_P2;Temp;Humidity;BMP_temperature;BMP_pressure;BME280_temperature;BME280_humidity;BME280_pressure;Samples;Min_cycle;Max_cycle;Signal;HPM_P1;HPM_P2
2023/02/25 00:00:09;;;;;;;;;;;;;;;4.10;63.89;99040.63;5029114;28;20406;-74
2023/02/25 00:02:35;;;;;;;;;;;;;;;4.00;64.25;99036.44;5030611;28;19925;-74
2023/02/25 00:05:03;;;;;;;;;;;;;;;3.96;64.22;99044.94;5029921;28;19923;-74
2023/02/25 00:07:30;;;;;;;;;;;;;;;4.25;62.96;99057.56;5028568;28;20018;-74
2023/02/25 00:09:56;;;;;;;;;;;;;;;4.11;63.97;99057.63;5030297;28;19921;-74
2023/02/25 00:12:21;;;;;;;;;;;;;;;3.97;64.92;99061.94;5030240;28;19970;-74
2023/02/25 00:14:46;;;;;;;;;;;;;;;3.86;65.96;99071.34;5033180;28;20011;-74
2023/02/25 00:17:11;;;;;;;;;;;;;;;3.93;65.93;99062.81;5031012;28;20008;-74
2023/02/25 00:19:37;;;;;;;;;;;;;;;3.95;66.41;99063.66;5027966;28;19928;-74
2023/02/25 00:22:02;;;;;;;;;;;;;;;3.96;66.91;99075.53;5031282;28;19917;-74
2023/02/25 00:24:27;;;;;;;;;;;;;;;4.05;66.23;99074.66;5028100;28;19960;-74
2023/02/25 00:26:52;;;;;;;;;;;;;;;3.93;65.98;99073.84;5027918;28;19963;-74
2023/02/25 00:29:17;;;;;;;;;;;;;;;4.02;65.80;99075.50;5029233;28;19968;-74
2023/02/25 00:31:43;;;;;;;;;;;;;;;4.00;66.24;99072.13;5029611;28;19947;-74
2023/02/25 00:34:08;;;;;;;;;;;;;;;3.97;65.78;99078.09;5029432;28;19917;-74
2023/02/25 00:36:33;;;;;;;;;;;;;;;4.23;65.32;99091.56;5031210;28;19932;-74
2023/02/25 00:38:58;;;;;;;;;;;;;;;3.98;66.11;99076.38;5031421;28;19917;-74
2023/02/25 00:41:25;;;;;;;;;;;;;;;3.98;66.38;99078.91;5029206;28;19923;-74
2023/02/25 00:43:58;;;;;;;;;;;;;;;3.83;67.38;99056.03;5027280;28;19917;-74
2023/02/25 00:46:23;;;;;;;;;;;;;;;4.02;66.64;99072.97;5029316;28;20370;-74
2023/02/25 00:48:48;;;;;;;;;;;;;;;4.03;66.55;99072.09;5028943;28;19932;-74
2023/02/25 00:51:14;;;;;;;;;;;;;;;4.17;65.71;99088.19;5032746;28;20021;-74
2023/02/25 00:53:40;;;;;;;;;;;;;;;4.07;66.17;99078.88;5029891;28;19928;-74
2023/02/25 00:56:06;;;;;;;;;;;;;;;3.94;66.45;99077.22;5030934;28;19921;-74
2023/02/25 00:58:33;;;;;;;;;;;;;;;3.93;65.85;99073.00;5030336;28;20010;-74
2023/02/25 01:01:00;;;;;;;;;;;;;;;4.16;64.60;99081.38;5027452;28;20553;-74
2023/02/25 01:03:25;;;;;;;;;;;;;;;4.33;63.89;99090.63;5028076;28;20014;-74
2023/02/25 01:05:51;;;;;;;;;;;;;;;4.05;65.05;99067.84;5026257;28;19921;-75
2023/02/25 01:08:16;;;;;;;;;;;;;;;4.29;63.66;99086.41;5028258;28;19970;-74
2023/02/25 01:10:42;;;;;;;;;;;;;;;4.12;64.61;99061.84;5031891;28;19925;-74
2023/02/25 01:13:07;;;;;;;;;;;;;;;4.06;64.96;99078.88;5028080;28;20529;-74
2023/02/25 01:15:32;;;;;;;;;;;;;;;3.83;65.95;99084.06;5026927;28;20422;-74
2023/02/25 01:17:57;;;;;;;;;;;;;;;4.12;65.40;99110.28;5030559;28;19917;-74
2023/02/25 01:20:23;;;;;;;;;;;;;;;4.17;65.93;99113.69;5027285;28;19921;-74
2023/02/25 01:22:48;;;;;;;;;;;;;;;3.97;66.61;99089.97;5029596;28;19913;-74
2023/02/25 01:25:16;;;;;;;;;;;;;;;4.25;66.60;99106.00;5031454;28;20586;-74
2023/02/25 01:27:41;;;;;;;;;;;;;;;4.24;66.23;99111.91;5028854;28;19921;-74
2023/02/25 01:30:07;;;;;;;;;;;;;;;4.03;66.40;99091.63;5027987;28;19972;-74
2023/02/25 01:32:32;;;;;;;;;;;;;;;3.91;67.17;99088.28;5030762;28;19917;-74
2023/02/25 01:34:57;;;;;;;;;;;;;;;3.77;67.65;99077.31;5029699;28;20434;-74
2023/02/25 01:37:23;;;;;;;;;;;;;;;3.98;67.38;99100.16;5030555;28;20362;-74
2023/02/25 01:39:48;;;;;;;;;;;;;;;3.98;67.78;99100.16;5025367;28;20298;-74
2023/02/25 01:42:14;;;;;;;;;;;;;;;3.89;67.94;99099.34;5030209;28;20384;-74
2023/02/25 01:44:59;;;;;;;;;;;;;;;4.13;67.86;99109.44;5026109;28;19927;-74
2023/02/25 01:47:24;;;;;;;;;;;;;;;3.90;68.83;99096.78;5028772;28;20007;-74
2023/02/25 01:49:51;;;;;;;;;;;;;;;3.59;70.08;99085.84;5029006;28;20028;-74
2023/02/25 01:52:20;;;;;;;;;;;;;;;3.66;69.47;99097.72;5030718;28;19921;-74
2023/02/25 01:54:46;;;;;;;;;;;;;;;4.13;69.06;99134.94;5029706;28;19925;-74
2023/02/25 01:57:12;;;;;;;;;;;;;;;3.87;70.70;99113.78;5026420;28;20228;-74
2023/02/25 01:59:38;;;;;;;;;;;;;;;3.64;71.13;99091.75;5027669;28;19917;-74
2023/02/25 02:02:03;;;;;;;;;;;;;;;3.89;70.03;99114.63;5028182;28;19917;-74
2023/02/25 02:04:28;;;;;;;;;;;;;;;3.82;70.42;99102.75;5027220;28;19917;-74
2023/02/25 02:06:53;;;;;;;;;;;;;;;4.18;69.34;99133.19;5027411;28;19923;-74
2023/02/25 02:09:20;;;;;;;;;;;;;;;3.82;70.76;99108.69;5028377;28;19932;-74
2023/02/25 02:11:45;;;;;;;;;;;;;;;3.85;70.28;99106.13;5027636;28;20135;-74
2023/02/25 02:14:12;;;;;;;;;;;;;;;3.75;70.53;99107.88;5029480;28;20049;-74
2023/02/25 02:16:40;;;;;;;;;;;;;;;3.91;70.88;99111.22;5028375;28;19921;-74
2023/02/25 02:19:24;;;;;;;;;;;;;;;3.81;71.14;99127.41;5027745;28;19931;-74
2023/02/25 02:22:05;;;;;;;;;;;;;;;3.95;70.91;99119.72;5030142;28;20028;-74
2023/02/25 02:24:30;;;;;;;;;;;;;;;3.95;70.73;99124.81;5027622;28;20426;-74
2023/02/25 02:27:12;;;;;;;;;;;;;;;3.82;71.24;99133.34;5028043;28;19924;-74
2023/02/25 02:29:56;;;;;;;;;;;;;;;3.69;71.55;99132.50;5025739;28;19937;-74
2023/02/25 02:32:28;;;;;;;;;;;;;;;3.77;72.45;99139.28;5025163;28;19917;-74
2023/02/25 02:35:01;;;;;;;;;;;;;;;3.80;72.60;99130.78;5028994;28;19913;-74
2023/02/25 02:37:29;;;;;;;;;;;;;;;3.76;72.88;99142.69;5027329;28;19927;-74
2023/02/25 02:40:10;;;;;;;;;;;;;;;3.58;73.57;99124.03;5025915;28;19921;-74
2023/02/25 02:42:54;;;;;;;;;;;;;;;3.90;73.09;99147.75;5030324;28;19995;-74
2023/02/25 02:45:21;;;;;;;;;;;;;;;3.61;74.39;99127.44;5027438;28;19931;-74
2023/02/25 02:47:57;;;;;;;;;;;;;;;3.47;75.48;99142.72;5026838;28;19951;-74
2023/02/25 02:50:32;;;;;;;;;;;;;;;3.82;74.21;99179.19;5026624;28;20434;-74
2023/02/25 02:52:59;;;;;;;;;;;;;;;3.75;75.19;99184.28;5028590;28;19913;-74
2023/02/25 02:55:35;;;;;;;;;;;;;;;3.67;76.02;99188.56;5010673;28;19948;-74
2023/02/25 02:58:03;;;;;;;;;;;;;;;4.09;75.20;99225.00;5025831;28;19966;-74
2023/02/25 03:00:29;;;;;;;;;;;;;;;3.84;77.07;99218.25;5026656;28;19925;-74
2023/02/25 03:02:56;;;;;;;;;;;;;;;3.53;77.60;99218.25;5024064;28;19921;-74
2023/02/25 03:05:21;;;;;;;;;;;;;;;3.74;76.99;99228.44;5025470;28;19928;-74
2023/02/25 03:07:51;;;;;;;;;;;;;;;3.81;77.27;99226.75;5025549;28;19917;-74
2023/02/25 03:10:17;;;;;;;;;;;;;;;4.11;77.72;99261.53;5027788;28;19923;-74
2023/02/25 03:12:42;;;;;;;;;;;;;;;4.22;77.81;99255.53;5023293;28;19943;-74
2023/02/25 03:15:08;;;;;;;;;;;;;;;3.67;79.01;99215.69;5026375;28;20535;-75
2023/02/25 03:17:47;;;;;;;;;;;;;;;3.79;78.22;99231.00;5024684;28;19921;-75
2023/02/25 03:20:36;;;;;;;;;;;;;;;4.05;77.97;99255.56;5023993;28;19917;-75
2023/02/25 03:23:01;;;;;;;;;;;;;;;3.98;78.40;99257.28;5017141;28;19921;-74
2023/02/25 03:25:28;;;;;;;;;;;;;;;3.67;79.33;99257.31;5029494;28;20633;-75
2023/02/25 03:27:58;;;;;;;;;;;;;;;3.93;78.71;99251.34;5024355;28;19917;-75
2023/02/25 03:30:26;;;;;;;;;;;;;;;3.71;79.78;99247.97;5024634;28;20038;-75
2023/02/25 03:32:59;;;;;;;;;;;;;;;4.02;78.83;99269.19;5024588;28;20066;-74
2023/02/25 03:35:25;;;;;;;;;;;;;;;3.72;79.82;99260.72;5024773;28;19956;-74
2023/02/25 03:37:51;;;;;;;;;;;;;;;3.92;80.02;99268.34;5025788;28;20558;-74
2023/02/25 03:40:16;;;;;;;;;;;;;;;4.15;79.94;99290.38;5025706;28;19928;-74
2023/02/25 03:42:42;;;;;;;;;;;;;;;4.05;80.02;99279.34;5025736;28;20875;-74
2023/02/25 03:45:08;;;;;;;;;;;;;;;4.03;79.82;99281.06;5024986;28;19921;-74
2023/02/25 03:47:34;;;;;;;;;;;;;;;4.03;80.45;99288.69;5025553;28;19967;-73
2023/02/25 03:50:07;;;;;;;;;;;;;;;4.09;80.49;99296.34;5025157;28;19932;-74
2023/02/25 03:52:32;;;;;;;;;;;;;;;3.89;81.25;99282.78;5025109;28;19963;-74
2023/02/25 03:54:58;;;;;;;;;;;;;;;3.69;81.47;99275.13;5025526;28;20388;-74
2023/02/25 03:57:24;;;;;;;;;;;;;;;3.93;80.92;99287.03;5027742;28;20359;-74
2023/02/25 03:59:52;;;;;;;;;;;;;;;4.09;81.01;99311.63;5028970;28;19921;-74
2023/02/25 04:02:17;;;;;;;;;;;;;;;3.80;81.65;99295.50;5029906;28;19963;-74
2023/02/25 04:04:42;;;;;;;;;;;;;;;3.98;81.38;99313.34;5026052;28;20144;-74
2023/02/25 04:07:07;;;;;;;;;;;;;;;4.05;82.03;99329.47;5029042;28;19968;-74
2023/02/25 04:09:32;;;;;;;;;;;;;;;3.43;83.47;99305.69;5027335;28;19921;-74
2023/02/25 04:11:58;;;;;;;;;;;;;;;3.29;84.14;99310.75;5029913;28;19917;-74
2023/02/25 04:14:23;;;;;;;;;;;;;;;2.80;85.66;99293.59;5030813;28;19917;-74
2023/02/25 04:16:48;;;;;;;;;;;;;;;3.04;86.72;99322.53;5031653;28;19913;-73
2023/02/25 04:19:14;;;;;;;;;;;;;;;3.45;87.27;99362.53;5012547;28;19961;-73
2023/02/25 04:21:39;;;;;;;;;;;;;;;3.60;87.06;99377.84;5039835;28;19979;-73
2023/02/25 04:24:05;;;;;;;;;;;;;;;3.72;86.40;99372.78;5031321;28;19956;-73
2023/02/25 04:26:31;;;;;;;;;;;;;;;4.05;86.45;99398.28;5029523;28;19924;-73
2023/02/25 04:28:56;;;;;;;;;;;;;;;4.18;86.01;99400.84;5031517;28;20004;-73
2023/02/25 04:31:21;;;;;;;;;;;;;;;3.86;85.73;99364.31;5041793;28;19920;-74
2023/02/25 04:33:48;;;;;;;;;;;;;;;4.30;85.04;99396.59;5031918;28;19917;-73
2023/02/25 04:36:23;;;;;;;;;;;;;;;4.10;85.86;99377.03;5040229;28;20398;-73
2023/02/25 04:38:48;;;;;;;;;;;;;;;4.05;85.76;99376.19;5033273;28;19917;-74
2023/02/25 04:41:14;;;;;;;;;;;;;;;3.96;85.93;99364.28;5036938;28;19914;-74
2023/02/25 04:43:39;;;;;;;;;;;;;;;3.51;86.87;99347.25;5040602;28;19917;-74
2023/02/25 04:46:04;;;;;;;;;;;;;;;3.58;87.05;99374.47;5031678;28;20004;-74
2023/02/25 04:48:30;;;;;;;;;;;;;;;3.81;87.38;99387.22;5022700;28;19940;-74
2023/02/25 04:50:59;;;;;;;;;;;;;;;4.02;87.29;99409.34;5036749;28;19929;-74
2023/02/25 04:53:24;;;;;;;;;;;;;;;3.98;88.32;99415.28;5038722;28;20004;-74
2023/02/25 04:55:49;;;;;;;;;;;;;;;3.86;88.51;99416.09;5035613;28;20355;-74
2023/02/25 04:58:15;;;;;;;;;;;;;;;3.96;89.17;99432.25;5031620;28;19955;-74
2023/02/25 05:00:46;;;;;;;;;;;;;;;4.02;89.25;99428.88;5044151;28;19953;-74
2023/02/25 05:03:11;;;;;;;;;;;;;;;4.15;90.22;99438.22;5029886;28;20397;-74
2023/02/25 05:05:36;;;;;;;;;;;;;;;4.08;90.40;99449.25;5005627;28;19920;-74
2023/02/25 05:08:03;;;;;;;;;;;;;;;3.94;90.90;99441.59;5039534;28;19917;-74
2023/02/25 05:10:28;;;;;;;;;;;;;;;3.85;91.68;99433.94;5032100;28;19960;-73
2023/02/25 05:12:54;;;;;;;;;;;;;;;3.82;92.21;99439.03;5038347;28;20346;-74
2023/02/25 05:15:19;;;;;;;;;;;;;;;3.96;92.52;99458.56;5028881;28;20013;-74
2023/02/25 05:17:44;;;;;;;;;;;;;;;3.75;93.97;99444.09;5035220;28;20012;-74
2023/02/25 05:20:11;;;;;;;;;;;;;;;3.90;93.39;99460.25;5034077;28;20055;-74
2023/02/25 05:22:36;;;;;;;;;;;;;;;3.84;94.39;99462.81;5031529;28;19913;-73
2023/02/25 05:25:01;;;;;;;;;;;;;;;3.64;95.11;99455.94;5029966;28;20350;-74
2023/02/25 05:27:27;;;;;;;;;;;;;;;3.81;94.89;99478.06;5032307;28;20322;-73
2023/02/25 05:29:53;;;;;;;;;;;;;;;3.86;96.40;99486.59;5030449;28;19966;-74
2023/02/25 05:32:18;;;;;;;;;;;;;;;4.15;96.85;99514.69;5033389;28;20063;-74
2023/02/25 05:34:43;;;;;;;;;;;;;;;3.82;97.28;99492.53;5035202;28;20003;-74
2023/02/25 05:37:09;;;;;;;;;;;;;;;3.80;97.78;99494.22;5033731;28;20055;-74
2023/02/25 05:39:34;;;;;;;;;;;;;;;3.78;97.88;99505.22;5035008;28;19916;-74
2023/02/25 05:42:00;;;;;;;;;;;;;;;3.78;98.75;99504.38;5029175;28;20008;-74
2023/02/25 05:44:25;;;;;;;;;;;;;;;3.97;98.38;99530.81;5031542;28;19959;-74
2023/02/25 05:46:50;;;;;;;;;;;;;;;4.07;98.64;99536.78;5034249;28;19964;-74
2023/02/25 05:49:15;;;;;;;;;;;;;;;4.10;98.74;99532.50;5039774;28;20033;-74
2023/02/25 05:51:40;;;;;;;;;;;;;;;4.03;98.49;99524.84;5026515;28;20268;-74
2023/02/25 05:54:06;;;;;;;;;;;;;;;4.01;98.04;99522.28;5031707;28;19920;-73
2023/02/25 05:56:31;;;;;;;;;;;;;;;4.14;97.28;99518.94;5033244;28;19917;-74
2023/02/25 05:58:56;;;;;;;;;;;;;;;4.02;97.75;99512.97;5033481;28;20042;-74
2023/02/25 06:01:23;;;;;;;;;;;;;;;4.11;97.26;99513.84;5032641;28;20011;-74
2023/02/25 06:03:49;;;;;;;;;;;;;;;4.14;97.00;99511.28;5030721;28;19992;-73
2023/02/25 06:06:15;;;;;;;;;;;;;;;3.59;97.41;99470.38;5032663;28;19999;-74
2023/02/25 06:08:43;;;;;;;;;;;;;;;4.06;96.16;99510.44;5029788;28;20482;-74
2023/02/25 06:11:08;;;;;;;;;;;;;;;3.73;96.55;99481.44;5031803;28;19923;-74
2023/02/25 06:13:33;;;;;;;;;;;;;;;4.06;96.00;99505.34;5030865;28;19913;-74
2023/02/25 06:16:01;;;;;;;;;;;;;;;3.90;95.96;99498.47;5031643;28;20028;-75
2023/02/25 06:18:26;;;;;;;;;;;;;;;3.95;95.81;99496.81;5025630;28;20555;-75
2023/02/25 06:20:51;;;;;;;;;;;;;;;3.85;95.72;99485.72;5031345;28;19955;-74
2023/02/25 06:23:17;;;;;;;;;;;;;;;3.93;95.87;99495.97;5034801;28;19964;-74
2023/02/25 06:25:42;;;;;;;;;;;;;;;4.11;95.64;99513.84;5032832;28;19920;-74
2023/02/25 06:28:07;;;;;;;;;;;;;;;4.09;95.61;99514.69;5030495;28;20344;-74
2023/02/25 06:30:32;;;;;;;;;;;;;;;4.02;95.31;99518.91;5040674;28;20451;-74
2023/02/25 06:32:58;;;;;;;;;;;;;;;4.12;95.17;99530.81;5034393;28;20000;-74
2023/02/25 06:35:23;;;;;;;;;;;;;;;3.71;95.77;99500.97;5034261;28;19920;-75
2023/02/25 06:37:49;;;;;;;;;;;;;;;3.84;95.52;99512.06;5029404;28;19917;-75
2023/02/25 06:40:14;;;;;;;;;;;;;;;3.98;95.28;99514.66;5032358;28;19919;-74
2023/02/25 06:42:39;;;;;;;;;;;;;;;3.84;95.35;99506.97;5034587;28;19917;-74
2023/02/25 06:45:05;;;;;;;;;;;;;;;3.72;95.80;99505.22;5012948;28;20028;-74
2023/02/25 06:47:30;;;;;;;;;;;;;;;3.81;95.72;99529.03;5030678;28;19913;-75
2023/02/25 06:49:56;;;;;;;;;;;;;;;3.99;95.78;99554.56;5027232;28;20013;-74
2023/02/25 06:52:21;;;;;;;;;;;;;;;3.76;96.22;99547.72;5031793;28;19996;-74
2023/02/25 06:54:46;;;;;;;;;;;;;;;3.45;96.53;99520.41;5029499;28;20415;-75
2023/02/25 06:57:11;;;;;;;;;;;;;;;4.03;96.75;99569.03;5040835;28;20004;-75
2023/02/25 06:59:37;;;;;;;;;;;;;;;3.70;96.77;99552.78;5034271;28;20003;-75
2023/02/25 07:02:02;;;;;;;;;;;;;;;3.85;97.19;99568.97;5025666;28;20003;-75
2023/02/25 07:04:27;;;;;;;;;;;;;;;3.97;97.06;99592.81;5036097;28;20012;-75
2023/02/25 07:06:52;;;;;;;;;;;;;;;3.76;97.00;99568.09;5029630;28;20011;-75
2023/02/25 07:09:17;;;;;;;;;;;;;;;3.85;97.71;99591.88;5028758;28;19944;-75
2023/02/25 07:11:43;;;;;;;;;;;;;;;3.77;97.81;99587.63;5029687;28;20349;-74
2023/02/25 07:14:08;;;;;;;;;;;;;;;4.13;96.82;99619.22;5029293;28;19924;-75
2023/02/25 07:16:33;;;;;;;;;;;;;;;4.08;96.71;99607.28;5032359;28;19917;-74
2023/02/25 07:19:00;;;;;;;;;;;;;;;3.95;96.54;99604.69;5029578;28;19962;-74
2023/02/25 07:21:29;;;;;;;;;;;;;;;3.85;95.83;99591.88;5020305;28;20391;-75
2023/02/25 07:23:55;;;;;;;;;;;;;;;3.76;96.68;99587.59;5027919;28;19959;-74
2023/02/25 07:26:20;;;;;;;;;;;;;;;3.75;96.01;99599.50;5029874;28;19917;-75
2023/02/25 07:28:47;;;;;;;;;;;;;;;3.59;97.32;99597.72;5033026;28;20019;-75
2023/02/25 07:31:14;;;;;;;;;;;;;;;3.56;97.39;99605.34;5039138;28;19925;-74
2023/02/25 07:33:40;;;;;;;;;;;;;;;3.82;96.96;99635.19;5033822;28;19920;-75
2023/02/25 07:36:05;;;;;;;;;;;;;;;3.63;97.10;99617.25;5037669;28;19920;-75
2023/02/25 07:38:31;;;;;;;;;;;;;;;3.61;97.24;99616.41;5052459;28;19908;-76
2023/02/25 07:40:56;;;;;;;;;;;;;;;3.56;97.24;99630.81;5034426;28;19959;-75
2023/02/25 07:43:21;;;;;;;;;;;;;;;3.52;97.97;99623.97;5033215;28;19913;-75
2023/02/25 07:45:48;;;;;;;;;;;;;;;3.54;98.06;99627.41;5047727;28;20018;-75
2023/02/25 07:48:13;;;;;;;;;;;;;;;3.42;98.69;99627.28;5050140;28;19917;-75
2023/02/25 07:50:38;;;;;;;;;;;;;;;3.40;98.09;99618.78;5030316;28;19943;-74
2023/02/25 07:53:03;;;;;;;;;;;;;;;3.60;97.93;99641.84;5030778;28;19994;-74
2023/02/25 07:55:29;;;;;;;;;;;;;;;3.85;97.21;99653.03;5032760;28;19924;-74
2023/02/25 07:57:54;;;;;;;;;;;;;;;4.04;95.99;99667.59;5031966;28;19920;-75
2023/02/25 08:00:19;;;;;;;;;;;;;;;4.05;95.75;99653.16;5029894;28;19917;-74
2023/02/25 08:02:45;;;;;;;;;;;;;;;3.82;95.52;99635.19;5028092;28;19917;-75
2023/02/25 08:05:10;;;;;;;;;;;;;;;3.72;95.31;99622.41;5030333;28;20059;-75
2023/02/25 08:07:36;;;;;;;;;;;;;;;3.72;94.67;99632.59;5021161;28;19920;-75
2023/02/25 08:10:01;;;;;;;;;;;;;;;3.58;95.19;99618.94;5027661;28;19924;-74
2023/02/25 08:12:26;;;;;;;;;;;;;;;4.06;93.70;99650.63;5027096;28;19920;-73
2023/02/25 08:14:51;;;;;;;;;;;;;;;3.76;93.42;99619.03;5020812;28;20430;-73
2023/02/25 08:17:17;;;;;;;;;;;;;;;3.96;92.36;99621.66;5027516;28;19921;-73
2023/02/25 08:19:42;;;;;;;;;;;;;;;4.07;90.93;99619.19;5020766;28;20006;-73
2023/02/25 08:22:10;;;;;;;;;;;;;;;4.03;90.33;99612.34;5026602;28;19917;-73
2023/02/25 08:24:36;;;;;;;;;;;;;;;4.18;89.93;99614.97;5026232;28;19928;-73
2023/02/25 08:27:02;;;;;;;;;;;;;;;4.03;90.10;99599.63;5030126;28;20395;-73
2023/02/25 08:29:27;;;;;;;;;;;;;;;4.24;89.56;99615.84;5026106;28;20017;-74
2023/02/25 08:31:52;;;;;;;;;;;;;;;4.08;89.63;99605.59;5029197;28;19916;-74
2023/02/25 08:34:17;;;;;;;;;;;;;;;4.29;88.85;99624.34;5029275;28;19913;-74
2023/02/25 08:36:43;;;;;;;;;;;;;;;4.26;87.58;99615.00;5022559;28;19925;-74
2023/02/25 08:39:08;;;;;;;;;;;;;;;4.24;87.25;99603.94;5026838;28;19924;-74
2023/02/25 08:41:33;;;;;;;;;;;;;;;4.27;87.16;99600.56;5028372;28;19999;-74
2023/02/25 08:44:00;;;;;;;;;;;;;;;4.30;86.35;99595.47;5028448;28;19988;-74
2023/02/25 08:46:26;;;;;;;;;;;;;;;4.50;84.94;99593.81;5028259;28;20004;-74
2023/02/25 08:48:52;;;;;;;;;;;;;;;4.46;84.04;99586.16;5019945;28;20433;-74
2023/02/25 08:51:17;;;;;;;;;;;;;;;4.71;83.19;99594.69;5022546;28;19921;-74
2023/02/25 08:53:42;;;;;;;;;;;;;;;4.44;82.76;99568.28;5016448;28;19955;-74
2023/02/25 08:56:09;;;;;;;;;;;;;;;4.91;81.26;99594.72;5028046;28;20307;-74
2023/02/25 08:58:34;;;;;;;;;;;;;;;4.56;81.00;99552.16;5025353;28;20610;-74
2023/02/25 09:01:00;;;;;;;;;;;;;;;4.81;79.73;99561.56;5020811;28;19921;-75
2023/02/25 09:03:25;;;;;;;;;;;;;;;4.53;79.63;99527.50;5030172;28;20058;-74
2023/02/25 09:05:54;;;;;;;;;;;;;;;4.63;78.63;99530.94;5026361;28;19916;-74
2023/02/25 09:08:19;;;;;;;;;;;;;;;4.49;78.38;99510.47;5024798;28;19920;-74
2023/02/25 09:10:44;;;;;;;;;;;;;;;4.54;77.00;99511.38;5029179;28;19921;-74
2023/02/25 09:13:10;;;;;;;;;;;;;;;4.77;76.46;99525.81;5024911;28;20480;-74
2023/02/25 09:15:35;;;;;;;;;;;;;;;4.70;75.47;99508.78;5032884;28;19928;-74
2023/02/25 09:18:01;;;;;;;;;;;;;;;4.77;74.61;99513.06;5028585;28;19913;-74
2023/02/25 09:20:26;;;;;;;;;;;;;;;4.62;74.17;99490.94;5027739;28;19921;-74
2023/02/25 09:22:53;;;;;;;;;;;;;;;4.71;73.19;99496.03;5023614;28;19923;-74
2023/02/25 09:25:18;;;;;;;;;;;;;;;4.46;73.18;99479.88;5017515;28;19921;-74
2023/02/25 09:27:43;;;;;;;;;;;;;;;4.61;71.50;99490.09;5020164;28;20531;-74
2023/02/25 09:30:09;;;;;;;;;;;;;;;4.60;71.08;99480.72;5024179;28;20457;-74
2023/02/25 09:32:34;;;;;;;;;;;;;;;4.84;70.17;99491.78;5021214;28;19917;-74
2023/02/25 09:35:01;;;;;;;;;;;;;;;4.54;70.24;99477.34;5024381;28;20023;-73
2023/02/25 09:37:26;;;;;;;;;;;;;;;4.77;69.06;99485.00;5024046;28;20601;-74
2023/02/25 09:39:51;;;;;;;;;;;;;;;4.66;69.04;99479.91;5023708;28;19917;-74
2023/02/25 09:42:18;;;;;;;;;;;;;;;4.70;68.59;99485.84;5021507;28;20011;-73
2023/02/25 09:44:50;;;;;;;;;;;;;;;5.42;65.71;99532.53;5022013;28;20589;-73
2023/02/25 09:47:34;;;;;;;;;;;;;;;4.78;66.57;99479.88;5023623;28;19926;-74
2023/02/25 09:50:04;;;;;;;;;;;;;;;5.10;65.43;99494.28;5024678;28;19970;-74
2023/02/25 09:52:34;;;;;;;;;;;;;;;4.79;65.39;99478.19;5020495;28;20015;-73
2023/02/25 09:55:02;;;;;;;;;;;;;;;4.85;65.36;99478.16;5024127;28;19920;-74
2023/02/25 09:57:28;;;;;;;;;;;;;;;4.63;64.65;99461.19;5018350;28;19917;-74
2023/02/25 09:59:53;;;;;;;;;;;;;;;5.07;63.53;99494.31;5006544;28;19929;-74
2023/02/25 10:02:21;;;;;;;;;;;;;;;5.57;61.15;99505.25;5018054;28;19921;-74
2023/02/25 10:05:06;;;;;;;;;;;;;;;4.98;61.75;99464.53;5025336;28;19921;-74
2023/02/25 10:07:35;;;;;;;;;;;;;;;5.23;60.99;99465.34;5018044;28;19920;-74
2023/02/25 10:10:03;;;;;;;;;;;;;;;5.21;60.91;99461.09;5024789;28;20439;-74
2023/02/25 10:12:35;;;;;;;;;;;;;;;4.84;62.37;99440.75;5026508;28;19917;-74
2023/02/25 10:15:09;;;;;;;;;;;;;;;4.48;63.82;99399.13;5022946;28;20005;-74
2023/02/25 10:17:57;;;;;;;;;;;;;;;4.54;64.26;99391.47;5019630;28;19917;-74
2023/02/25 10:20:32;;;;;;;;;;;;;;;4.65;63.14;99394.00;5003520;28;20004;-74
2023/02/25 10:23:03;;;;;;;;;;;;;;;4.51;66.36;99365.97;5026803;28;20443;-74
2023/02/25 10:25:30;;;;;;;;;;;;;;;4.51;68.36;99350.66;5024692;28;20273;-74
2023/02/25 10:27:55;;;;;;;;;;;;;;;4.78;71.92;99328.50;5021535;28;19921;-74
2023/02/25 10:30:30;;;;;;;;;;;;;;;4.85;74.77;99309.75;5022339;28;19924;-74
2023/02/25 10:32:55;;;;;;;;;;;;;;;5.21;79.65;99290.03;5017950;28;19967;-74
2023/02/25 10:35:23;;;;;;;;;;;;;;;4.92;84.87;99224.66;5019175;28;21026;-74
2023/02/25 10:37:48;;;;;;;;;;;;;;;4.82;86.74;99194.97;5025350;28;20433;-74
2023/02/25 10:40:14;;;;;;;;;;;;;;;4.44;91.39;99155.19;5023435;28;19921;-74
2023/02/25 10:42:40;;;;;;;;;;;;;;;4.47;96.05;99134.78;5019974;28;19921;-74
2023/02/25 10:45:10;;;;;;;;;;;;;;;4.63;99.08;99114.28;5018782;28;20864;-74
2023/02/25 10:47:39;;;;;;;;;;;;;;;4.42;100.00;99080.38;5003350;28;19984;-74
2023/02/25 10:50:25;;;;;;;;;;;;;;;4.39;100.00;99049.81;5019597;28;19928;-74
2023/02/25 10:52:58;;;;;;;;;;;;;;;4.27;100.00;99016.78;5026758;28;19925;-74
2023/02/25 10:55:24;;;;;;;;;;;;;;;4.26;100.00;98982.75;5023457;28;20019;-74
2023/02/25 10:57:50;;;;;;;;;;;;;;;4.63;100.00;98981.63;5021522;28;19925;-74
2023/02/25 11:00:28;;;;;;;;;;;;;;;4.73;100.00;98957.75;5001148;28;19920;-74
2023/02/25 11:02:53;;;;;;;;;;;;;;;4.81;100.00;98943.19;5024971;28;20420;-74
2023/02/25 11:05:48;;;;;;;;;;;;;;;4.71;100.00;98924.59;5026844;28;19925;-74
2023/02/25 11:08:30;;;;;;;;;;;;;;;4.70;100.00;98904.19;5013603;28;19975;-75
2023/02/25 11:11:04;;;;;;;;;;;;;;;4.61;100.00;98869.44;5017553;28;19932;-74
2023/02/25 11:13:30;;;;;;;;;;;;;;;5.30;100.00;98840.56;5024923;28;19929;-74
2023/02/25 11:15:56;;;;;;;;;;;;;;;4.73;100.00;98774.09;5022224;28;20413;-74
2023/02/25 11:18:23;;;;;;;;;;;;;;;5.11;100.00;98716.56;5012348;28;20593;-75
2023/02/25 11:20:52;;;;;;;;;;;;;;;5.40;100.00;98696.56;5023999;28;20517;-74
2023/02/25 11:23:56;;;;;;;;;;;;;;;5.85;100.00;98650.66;5022118;28;19924;-75
2023/02/25 11:26:27;;;;;;;;;;;;;;;6.00;100.00;98605.28;4975092;28;19984;-74
2023/02/25 11:28:52;;;;;;;;;;;;;;;5.72;100.00;98539.31;4975216;28;19921;-74
2023/02/25 11:31:19;;;;;;;;;;;;;;;6.82;100.00;98537.81;5000724;28;20031;-74
2023/02/25 11:33:48;;;;;;;;;;;;;;;5.32;100.00;98472.88;5028082;28;19916;-75
2023/02/25 11:36:18;;;;;;;;;;;;;;;5.56;100.00;98451.09;5021259;28;19921;-74
2023/02/25 11:38:43;;;;;;;;;;;;;;;5.12;100.00;98412.84;5025948;28;20922;-75
2023/02/25 11:41:16;;;;;;;;;;;;;;;4.89;100.00;98397.97;5022169;28;19921;-75
2023/02/25 11:43:41;;;;;;;;;;;;;;;5.41;100.00;98391.81;5028982;28;19920;-75
2023/02/25 11:46:10;;;;;;;;;;;;;;;5.50;100.00;98384.84;5024675;28;20276;-75
2023/02/25 11:48:59;;;;;;;;;;;;;;;4.95;100.00;98371.47;5021313;28;19921;-75
2023/02/25 11:51:28;;;;;;;;;;;;;;;4.56;100.00;98363.69;5022779;28;19970;-74
2023/02/25 11:53:59;;;;;;;;;;;;;;;4.83;100.00;98357.25;5025218;28;19921;-75
2023/02/25 11:56:33;;;;;;;;;;;;;;;4.91;100.00;98350.31;5029912;28;19948;-74
2023/02/25 11:59:05;;;;;;;;;;;;;;;4.55;100.00;98357.78;5029010;28;19948;-75
2023/02/25 12:01:49;;;;;;;;;;;;;;;4.82;100.00;98360.69;5027190;28;20387;-74
2023/02/25 12:04:20;;;;;;;;;;;;;;;4.60;100.00;98371.28;5025558;28;19971;-75
2023/02/25 12:06:54;;;;;;;;;;;;;;;4.75;100.00;98359.13;5030936;28;20326;-75
2023/02/25 12:09:25;;;;;;;;;;;;;;;4.77;100.00;98326.78;5030309;28;19921;-75
2023/02/25 12:11:53;;;;;;;;;;;;;;;4.10;100.00;98309.28;5034233;28;19916;-74
2023/02/25 12:14:21;;;;;;;;;;;;;;;4.76;100.00;98291.91;5027320;28;20549;-74
2023/02/25 12:16:46;;;;;;;;;;;;;;;5.63;100.00;98287.50;5028390;28;19921;-75
2023/02/25 12:19:31;;;;;;;;;;;;;;;6.15;100.00;98272.59;5026864;28;19967;-75
2023/02/25 12:22:11;;;;;;;;;;;;;;;5.87;100.00;98249.44;5031562;28;20291;-75
2023/02/25 12:24:42;;;;;;;;;;;;;;;5.32;100.00;98236.28;5024314;28;19932;-75
2023/02/25 12:27:26;;;;;;;;;;;;;;;6.70;100.00;98234.44;5026496;28;19925;-75
2023/02/25 12:30:10;;;;;;;;;;;;;;;7.04;100.00;98225.78;5023715;28;19925;-75
2023/02/25 12:32:38;;;;;;;;;;;;;;;6.64;100.00;98202.22;5024314;28;19924;-75
2023/02/25 12:35:06;;;;;;;;;;;;;;;6.32;100.00;98212.50;5030084;28;19921;-75
2023/02/25 12:37:46;;;;;;;;;;;;;;;6.41;100.00;98197.75;5021438;28;20582;-75
2023/02/25 12:40:30;;;;;;;;;;;;;;;5.36;100.00;98214.91;5025863;28;19943;-75
2023/02/25 12:43:07;;;;;;;;;;;;;;;5.47;100.00;98214.63;5022327;28;19924;-75
2023/02/25 12:46:02;;;;;;;;;;;;;;;5.53;100.00;98216.22;5026982;28;19968;-75
2023/02/25 12:48:34;;;;;;;;;;;;;;;5.76;100.00;98202.88;4984230;28;19921;-75
2023/02/25 12:51:18;;;;;;;;;;;;;;;5.58;100.00;98189.69;5023909;28;19960;-75
2023/02/25 12:53:44;;;;;;;;;;;;;;;5.94;100.00;98188.78;5023054;28;19928;-75
2023/02/25 12:56:32;;;;;;;;;;;;;;;7.00;100.00;98181.53;5024296;28;19925;-75
2023/02/25 12:59:04;;;;;;;;;;;;;;;7.50;100.00;98165.44;5020488;28;19921;-75